Tiempo atmosférico en la estación meteorológica de A Pobra de Trives, Ourense (840 m.)



Fecha
DESCASC
Temp. máxima en grados centígrados (hora)
DESCASC
Temp. mínima en grados centígrados (hora)
DESCASC
Temp. media en grados centígrados
DESCASC
Racha de viento máxima en m/sg (hora)
DESCASC
Velocidad máxima media en intervalos de 10 minutos(hora)
DESCASC
Precipitaciones diarias en mm
DESCASC
Precipitaciones de 00:00 a 06:00 en mm
DESCASC
Precipitaciones de 06:00 a 12:00 en mm
DESCASC
Precipitaciones de 12:00 a 18:00 en mm
DESCASC
Precipitaciones de 18:00 a 24:00 en mm
DESCASC
14-12-2019 11.6 (14:40) 7.1 (06:40) 9.4 12.5 (23:50) 5.83 (03:40) 1.6 0.8 0.6 0 0.2
13-12-2019 10.8 (13:00) 7.8 (21:40) 9.3 16.39 (01:40) 8.06 (01:30) 3.4 1.4 0.2 1 0.8
12-12-2019 10.1 (21:00) 5.2 (01:00) 7.7 19.17 (13:40) 8.89 (13:40) 41.8 0.2 6.6 22.8 12.2
11-12-2019 8.2 (01:00) 3.6 (00:00) 5.9 12.22 (04:50) 5.83 (15:50) 10.6 7 1.8 0.6 1.2
10-12-2019 7.3 (16:30) -0.4 (03:40) 3.5 3.89 (21:20) 2.5 (21:20) 0 0 0 0 0
09-12-2019 8.5 (12:40) 0.3 (04:50) 4.4 7.22 (06:40) 3.89 (05:40) 0 0 0 0 0
08-12-2019 11.3 (13:30) 5.4 (00:00) 8.4 7.78 (16:40) 3.33 (15:30) 6.6 0 5 1.4 0.2
07-12-2019 10.5 (15:00) 0.9 (00:00) 5.7 4.17 (02:20) 3.06 (02:20) 0 0 0 0 0
06-12-2019 10.3 (14:40) 0.6 (00:00) 5.5 4.72 (23:40) 3.06 (23:59) 0 0 0 0 0
05-12-2019 10.2 (14:40) -1.4 (-00:0) 4.4 6.39 (03:10) 3.33 (03:20) 0 0 0 0 0
04-12-2019 8.8 (15:10) -3 (03:30) 2.9 5.56 (20:10) 2.78 (21:40) 0 0 0 0 0
03-12-2019 7.3 (14:50) -3.2 (-00:0) 2.1 3.89 (11:50) 2.22 (19:00) 0 0 0 0 0
02-12-2019 10.1 (13:30) 0.6 (00:00) 5.4 10.28 (01:20) 3.61 (01:10) 0 0 0 0 0
01-12-2019 9.2 (13:40) 3.9 (00:00) 6.5 8.33 (00:20) 3.61 (16:40) 7.8 3.6 4.2 0 0
30-11-2019 11.9 (04:50) 5.8 (00:00) 8.8 14.17 (08:20) 6.11 (08:20) 11.4 5.6 4.8 0 1
29-11-2019 13.3 (13:50) 5.9 (00:00) 9.6 7.22 (00:50) 3.61 (00:30) 0.2 0 0 0 0.2
28-11-2019 14.3 (13:10) 9.1 (00:00) 11.7 13.06 (12:00) 6.11 (18:10) 4.8 0.4 0 3 1.4
27-11-2019 9.1 (15:00) 6.8 (00:00) 8 17.5 (02:00) 7.78 (03:10) 7.4 0 1 5 1.4
26-11-2019 15.1 (13:30) 6.7 (00:00) 10.9 21.39 (16:00) 10.28 (16:30) 8 0.6 0.4 4.2 2.8
25-11-2019 12.9 (14:00) 8 (20:20) 10.4 13.61 (05:50) 5.83 (02:10) 1 1 0 0 0
24-11-2019 10.5 (21:10) 3.1 (00:00) 6.8 14.72 (20:20) 4.72 (20:30) 3.8 0 0 0.8 3
23-11-2019 8.3 (15:00) 3.4 (00:00) 5.9 18.33 (02:40) 8.33 (02:40) 20.6 8.2 9.2 2.4 0.8
22-11-2019 12 (11:40) 4.7 (00:00) 8.3 18.33 (12:40) 9.17 (22:50) 28.4 2.2 3.2 13.2 9.8
21-11-2019 10.6 (12:20) 2.5 (00:00) 6.6 8.33 (12:00) 4.17 (12:30) 0.8 0.2 0 0.6 0
20-11-2019 10.2 (14:40) 3.9 (21:00) 7 7.5 (15:40) 3.06 (15:40) 0.6 0 0.6 0 0
19-11-2019 6.4 (14:50) -0.8 (-00:0) 2.8 4.17 (22:00) 2.5 (22:00) 3.8 0 0 0 3.8
18-11-2019 9.3 (14:00) 0 (00:00) 4.7 7.5 (00:10) 3.06 (00:10) 0.2 0 0 0.2 0
17-11-2019 7.7 (12:00) 3.4 (00:00) 5.5 12.22 (12:50) 5.56 (12:40) 13.4 0.4 10.4 1.8 0.8
16-11-2019 6.3 (13:20) 0.7 (00:00) 3.5 7.78 (20:20) 3.61 (20:20) 2.4 0.8 0.6 0.6 0.4

Gráficas

Temp. máximas Temp. mínimas Temp. medias Precipitaciones Rachas de viento máximas Velocidades máximas media en intervalos de 10 minutos

Datos horarios

Fecha y hora oficial Temperatura (ºC) Velocidad del viento (km/h) Dirección del viento Racha (km/h) Dirección de racha Precipitación (mm) Presión (hPa) Tendencia (hPa) Humedad (%)
2019-12-15 23:00:00 5.8 6 Oeste 16 Noroeste 0.6 908.8 -1.4 96
2019-12-15 22:00:00 5.9 10 Oeste 23 Oeste 3 909.5 -1 96
2019-12-15 21:00:00 6.7 0 Calma 6 Sur 1.8 909.7 -1 97
2019-12-15 20:00:00 6.7 3 Sudeste 6 Este 1.8 910.2 -1.1 97
2019-12-15 19:00:00 6.8 3 Sudeste 9 Este 0.4 910.5 -1 96
2019-12-15 18:00:00 6.9 9 Noroeste 15 Noroeste 1 910.7 -0.9 95
2019-12-15 17:00:00 7.3 6 Oeste 19 Oeste 2.6 911.3 -0.5 95
2019-12-15 16:00:00 7.7 8 Oeste 23 Oeste 4 911.5 -1.2 95
2019-12-15 15:00:00 8.1 14 Oeste 26 Noroeste 3 911.6 -2.1 93
2019-12-15 14:00:00 9.6 9 Nordeste 26 Este 0.2 911.8 -2.2 93
2019-12-15 13:00:00 9 12 Oeste 37 Sudoeste 1 912.7 -0.8 87
2019-12-15 12:00:00 9 4 Sur 34 Sudoeste 1.6 913.7 0.8 89
2019-12-15 11:00:00 8.6 12 Oeste 35 Oeste 2.6 914 1 90
2019-12-15 10:00:00 8.8 11 Sudoeste 28 Oeste 1.6 913.5 0.6 87
2019-12-15 09:00:00 8.7 11 Sudoeste 37 Sudoeste 1.6 912.9 -0.5 88
2019-12-15 08:00:00 8.8 10 Sudoeste 30 Sudoeste 0.6 913 -1.2 86
2019-12-15 07:00:00 8.9 9 Sudoeste 37 Oeste 0.4 912.9 -1.7 86
2019-12-15 06:00:00 9.2 10 Sudoeste 35 Sudoeste 0 913.4 -1.6 80
2019-12-15 05:00:00 9 14 Sudoeste 38 Oeste 0 914.2 -1.2 78
2019-12-15 04:00:00 8.9 13 Oeste 31 Oeste 0 914.6 -1.8 83
2019-12-15 03:00:00 8.9 11 Sudoeste 30 Sudoeste 0 915 -1.4 86
2019-12-15 02:00:00 8.7 10 Sudoeste 30 Oeste 0 915.4 -1.2 88
2019-12-15 01:00:00 8.9 13 Sudoeste 39 Sudoeste 0 916.4 -1 86
2019-12-15 00:00:00 9 17 Sudoeste 45 Sudoeste 0.2 916.4 -1.2 80
2019-12-14 23:00:00 8.6 19 Sudoeste 40 Oeste 0 916.6 -1.3 84
2019-12-14 22:00:00 8.7 9 Oeste 22 Oeste 0 917.4 -0.6 89
2019-12-14 21:00:00 8.5 9 Oeste 21 Sudoeste 0 917.6 -0.5 91
2019-12-14 20:00:00 8.6 8 Oeste 24 Oeste 0 917.9 -0.3 91
2019-12-14 19:00:00 8.9 11 Oeste 32 Oeste 0 918 -0.5 84
2019-12-14 18:00:00 9 17 Oeste 40 Sudoeste 0 918.1 -0.7 85
2019-12-14 17:00:00 9.6 17 Oeste 41 Sudoeste 0 918.2 -1.1 81
2019-12-14 16:00:00 10.7 11 Sudoeste 35 Oeste 0 918.5 -1.4 79
2019-12-14 15:00:00 11.2 14 Oeste 29 Oeste 0 918.8 -1.9 78
2019-12-14 14:00:00 10.2 6 Oeste 31 Sudoeste 0 919.3 -1.4 86
2019-12-14 13:00:00 9.7 8 Oeste 26 Oeste 0 919.9 -0.8 85
2019-12-14 12:00:00 9.2 12 Sudoeste 25 Sudoeste 0 920.7 0.4 88
2019-12-14 11:00:00 8.3 6 Sudeste 39 Sudoeste 0 920.7 0.2 93
2019-12-14 10:00:00 7.7 17 Oeste 33 Oeste 0.4 920.7 0.3 93
2019-12-14 09:00:00 7.5 10 Oeste 24 Oeste 0 920.3 0 95
2019-12-14 08:00:00 7.5 13 Oeste 37 Sudoeste 0.2 920.5 -0.1 94
2019-12-14 07:00:00 7.3 16 Oeste 40 Oeste 0 920.4 -0.5 94
2019-12-14 06:00:00 7.3 20 Oeste 40 Oeste 0.2 920.3 -0.7 93
2019-12-14 05:00:00 7.7 21 Oeste 42 Oeste 0 920.6 -0.5 91
2019-12-14 04:00:00 7.8 19 Oeste 40 Oeste 0.2 920.9 -0.5 94
2019-12-14 03:00:00 8 15 Oeste 35 Oeste 0 921 -0.4 95
2019-12-14 02:00:00 8 15 Oeste 37 Oeste 0 921.1 -0.5 94
2019-12-14 01:00:00 8 17 Oeste 40 Oeste 0.4 921.4 -0.4 95
2019-12-14 00:00:00 8 17 Oeste 39 Sudoeste 0 921.4 -0.2 94
2019-12-13 23:00:00 8 17 Oeste 34 Sudoeste 0 921.6 -0.2 95
2019-12-13 22:00:00 7.9 15 Oeste 38 Oeste 0.2 921.8 0.1 95
2019-12-13 21:00:00 8 17 Oeste 44 Oeste 0 921.6 0.3 94
2019-12-13 20:00:00 8.2 14 Oeste 43 Oeste 0.2 921.8 0.8 90
2019-12-13 19:00:00 8.6 21 Oeste 45 Oeste 0.4 921.7 1 93
2019-12-13 18:00:00 9.3 18 Oeste 44 Noroeste 0.2 921.3 0.5 94
2019-12-13 17:00:00 9.8 18 Oeste 46 Oeste 0.2 921 0.3 93
2019-12-13 16:00:00 10.3 18 Oeste 45 Oeste 0.4 920.7 -0.5 94
2019-12-13 15:00:00 10.6 15 Oeste 46 Oeste 0.2 920.8 -0.6 94
2019-12-13 14:00:00 10.5 21 Oeste 44 Oeste 0 920.7 -0.2 93
2019-12-13 13:00:00 10.8 18 Oeste 51 Noroeste 0 921.2 0.6 92
2019-12-13 12:00:00 10.5 20 Oeste 43 Oeste 0 921.4 1.1 93
2019-12-13 11:00:00 10.4 24 Oeste 52 Oeste 0 920.9 1.3 93
2019-12-13 10:00:00 9.9 25 Oeste 49 Oeste 0 920.6 1.5 94
2019-12-13 09:00:00 9.6 23 Oeste 46 Noroeste 0 920.3 1.6 95
2019-12-13 08:00:00 9.5 22 Oeste 50 Oeste 0 919.6 1 95
2019-12-13 07:00:00 9.3 24 Oeste 50 Oeste 0.2 919.1 0.3 95
2019-12-13 06:00:00 9.3 25 Oeste 50 Oeste 0.2 918.7 0.3 95
2019-12-13 05:00:00 9.3 24 Oeste 51 Oeste 0 918.6 0.3 95
2019-12-13 04:00:00 9.4 21 Oeste 55 Oeste 0.2 918.8 0.5 96
2019-12-13 03:00:00 9.6 25 Oeste 56 Oeste 0.8 918.4 0.1 95
2019-12-13 02:00:00 9.9 27 Oeste 59 Oeste 0 918.3 0.3 95
2019-12-13 01:00:00 10 27 Oeste 55 Oeste 0.2 918.3 0.6 95
2019-12-13 00:00:00 10 24 Oeste 48 Oeste 0 918.3 0.8 95
2019-12-12 23:00:00 10 26 Oeste 54 Oeste 0.4 918 0.5 95
2019-12-12 22:00:00 10.1 27 Oeste 58 Oeste 4.2 917.7 0.6 95
2019-12-12 21:00:00 10.1 24 Oeste 55 Sudoeste 0.6 917.5 0.8 95
2019-12-12 20:00:00 9.9 21 Oeste 53 Oeste 4 917.5 1 96
2019-12-12 19:00:00 9.8 26 Oeste 60 Oeste 3 917.1 0.8 95
2019-12-12 18:00:00 9.6 25 Oeste 57 Oeste 4.8 916.7 0.4 95
2019-12-12 17:00:00 9.4 26 Oeste 62 Oeste 5.4 916.5 -0.7 96
2019-12-12 16:00:00 9 27 Oeste 64 Sudoeste 5.4 916.3 -1.9 95
2019-12-12 15:00:00 8.6 30 Oeste 67 Oeste 3.2 916.3 -3.6 95
2019-12-12 14:00:00 8 31 Oeste 69 Oeste 2.2 917.2 -3.3 94
2019-12-12 13:00:00 7.6 27 Oeste 60 Oeste 1.8 918.2 -2.5 94
2019-12-12 12:00:00 6.7 22 Oeste 52 Oeste 1.8 919.9 -1.4 94
2019-12-12 11:00:00 6.1 22 Oeste 51 Oeste 0.8 920.5 -0.8 93
2019-12-12 10:00:00 6.1 22 Oeste 51 Oeste 1.8 920.7 -1.4 93
2019-12-12 09:00:00 5.8 23 Oeste 60 Oeste 0.4 921.3 -1.5 93
2019-12-12 08:00:00 5.9 24 Oeste 51 Sudoeste 1.4 921.3 -2.2 93
2019-12-12 07:00:00 5.8 22 Oeste 44 Oeste 0.4 922.1 -2.3 93
2019-12-12 06:00:00 5.7 20 Oeste 45 Oeste 0 922.8 -2.3 90
2019-12-12 05:00:00 5.5 17 Oeste 51 Oeste 0.2 923.5 -2.2 92
2019-12-12 04:00:00 5.6 18 Oeste 45 Oeste 0 924.4 -2.3 93
2019-12-12 03:00:00 5.5 16 Oeste 33 Oeste 0 925.1 -2.3 94
2019-12-12 02:00:00 5.4 17 Oeste 35 Oeste 0 925.7 -1.7 93
2019-12-12 01:00:00 5.2 15 Oeste 34 Oeste 0 926.7 -0.9 92
2019-12-12 00:00:00 5.3 17 Oeste 36 Oeste 0.6 927.4 -0.9 93
2019-12-11 23:00:00 5.2 15 Oeste 40 Oeste 0 927.4 -1 92
2019-12-11 22:00:00 5.2 15 Oeste 31 Oeste 0 927.6 -1 91
2019-12-11 21:00:00 4.9 11 Oeste 30 Oeste 0.2 928.3 -0.1 92
2019-12-11 20:00:00 5 14 Oeste 31 Oeste 0 928.4 0.1 94
2019-12-11 19:00:00 5 17 Oeste 37 Oeste 0.4 928.6 0.5 95
2019-12-11 18:00:00 4.9 15 Oeste 35 Oeste 0.4 928.4 0.2 93
2019-12-11 17:00:00 5.3 16 Oeste 36 Oeste 0.2 928.3 -0.7 89
2019-12-11 16:00:00 5.6 16 Oeste 42 Noroeste 0 928.1 -1.4 88
2019-12-11 15:00:00 6.5 15 Oeste 37 Oeste 0 928.2 -1.8 79
2019-12-11 14:00:00 5.6 14 Oeste 35 Noroeste 0 929 -0.6 82
2019-12-11 13:00:00 6.3 17 Oeste 36 Oeste 0 929.5 0.4 76
2019-12-11 12:00:00 5.6 13 Oeste 29 Oeste 0 930 1.7 86
2019-12-11 11:00:00 4.1 15 Oeste 31 Oeste 0 929.6 2.2 92
2019-12-11 10:00:00 3.6 14 Oeste 32 Oeste 0 929.1 2.5 94
2019-12-11 09:00:00 3.8 17 Oeste 43 Oeste 0.2 928.3 1.9 94
2019-12-11 08:00:00 4.4 15 Oeste 35 Oeste 1 927.4 1.5 95
2019-12-11 07:00:00 4.4 10 Oeste 28 Oeste 0.6 926.6 2.2 95
2019-12-11 06:00:00 4.9 9 Noroeste 36 Noroeste 2.8 926.4 1.3 95
2019-12-11 05:00:00 5.3 18 Oeste 44 Noroeste 2.4 925.9 0.7 94
2019-12-11 04:00:00 5.3 3 Este 15 Sur 1.4 924.4 -1.4 94
2019-12-11 03:00:00 5.8 7 Nordeste 19 Noroeste 0.4 925.1 -1.2 88
2019-12-11 02:00:00 6.4 5 Este 17 Noroeste 0 925.2 -1.5 78
2019-12-11 01:00:00 8.2 10 Noroeste 23 Sudoeste 0 925.8 -1.4 89
2019-12-11 00:00:00 5.7 4 Sudeste 13 Este 0 926.3 -1 74
2019-12-10 23:00:00 4.7 3 Sudeste 10 Noroeste 0 926.7 -0.8 76
2019-12-10 22:00:00 5.7 5 Sudoeste 14 Norte 0 927.2 -0.6 72
2019-12-10 21:00:00 5.4 4 Noroeste 12 Noroeste 0 927.3 -0.7 76
2019-12-10 20:00:00 5.1 5 Norte 10 Sur 0 927.5 -1 74
2019-12-10 19:00:00 5.1 4 Sudeste 10 Sur 0 927.8 -0.6 76
2019-12-10 18:00:00 5.8 3 Sur 10 Nordeste 0 928 -0.7 82
2019-12-10 17:00:00 7.3 3 Sur 9 Noroeste 0 928.5 -1 78
2019-12-10 16:00:00 7 0 Calma 5 Este 0 928.4 -2.1 78
2019-12-10 15:00:00 7 5 Este 9 Sudeste 0 928.7 -3.1 75
2019-12-10 14:00:00 6.8 3 Noroeste 10 Este 0 929.5 -2.6 76
2019-12-10 13:00:00 6.1 4 Este 9 Este 0 930.5 -1.7 76
2019-12-10 12:00:00 4.8 3 Noroeste 8 Norte 0 931.8 -0.3 81
2019-12-10 11:00:00 3.2 2 Este 6 Noroeste 0 932.1 -0.1 85
2019-12-10 10:00:00 1.6 5 Noroeste 10 Noroeste 0 932.2 0.1 89
2019-12-10 09:00:00 0.9 0 Calma 8 Noroeste 0 932.1 -0.1 90
2019-12-10 08:00:00 0.7 2 Noroeste 7 Noroeste 0 932.2 -0.5 87
2019-12-10 07:00:00 0.5 4 Noroeste 9 Noroeste 0 932.1 -0.9 93
2019-12-10 06:00:00 0.1 4 Noroeste 8 Noroeste 0 932.2 -1.1 94
2019-12-10 05:00:00 -0.2 6 Noroeste 12 Noroeste 0 932.7 -0.9 93
2019-12-10 04:00:00 -0.4 3 Oeste 8 Noroeste 0 933 -1.1 93
2019-12-10 03:00:00 0 6 Noroeste 10 Oeste 0 933.3 -1 92
2019-12-10 02:00:00 0.3 6 Noroeste 10 Noroeste 0 933.6 -0.7 93
2019-12-10 01:00:00 0.7 6 Noroeste 12 Noroeste 0 934.1 -0.4 94
2019-12-10 00:00:00 1 6 Noroeste 12 Noroeste 0 934.3 -0.3 93
2019-12-09 23:00:00 1.4 7 Noroeste 13 Noroeste 0 934.3 -0.3 94
2019-12-09 22:00:00 1.8 8 Noroeste 12 Noroeste 0 934.5 0.1 94
2019-12-09 21:00:00 2.6 6 Noroeste 13 Oeste 0 934.6 0.4 93
2019-12-09 20:00:00 4.2 8 Oeste 17 Oeste 0 934.6 0.7 90
2019-12-09 19:00:00 5.1 9 Oeste 18 Oeste 0 934.4 0.9 90
2019-12-09 18:00:00 5.5 6 Oeste 18 Noroeste 0 934.2 0.7 88
2019-12-09 17:00:00 6.9 6 Oeste 19 Oeste 0 933.9 0.2 84
2019-12-09 16:00:00 7.7 12 Oeste 22 Oeste 0 933.5 -0.8 81
2019-12-09 15:00:00 8.2 7 Oeste 20 Oeste 0 933.5 -1.3 81
2019-12-09 14:00:00 8.1 12 Oeste 22 Sudoeste 0 933.7 -0.9 80
2019-12-09 13:00:00 8.1 11 Oeste 21 Oeste 0 934.3 -0.1 79
2019-12-09 12:00:00 7 9 Oeste 22 Oeste 0 934.8 1.2 86
2019-12-09 11:00:00 4.7 13 Oeste 21 Oeste 0 934.6 1.6 95
2019-12-09 10:00:00 3.1 8 Oeste 19 Noroeste 0 934.4 1.1 97
2019-12-09 09:00:00 1.3 10 Oeste 23 Noroeste 0 933.6 0.8 96
2019-12-09 08:00:00 1.3 13 Noroeste 23 Oeste 0 933 0.7 97
2019-12-09 07:00:00 2.3 13 Noroeste 26 Noroeste 0 933.3 1 97
2019-12-09 06:00:00 1 4 Noroeste 26 Noroeste 0 932.8 0.6 96
2019-12-09 05:00:00 0.5 11 Noroeste 17 Noroeste 0 932.3 0.1 92
2019-12-09 04:00:00 0.9 8 Noroeste 16 Noroeste 0 932.3 0 94
2019-12-09 03:00:00 1.1 9 Noroeste 17 Noroeste 0 932.2 -0.1 94
2019-12-09 02:00:00 2.3 10 Noroeste 17 Oeste 0 932.2 0.4 94
2019-12-09 01:00:00 3.4 5 Oeste 10 Noroeste 0 932.3 1.3 94
2019-12-09 00:00:00 5.5 5 Oeste 18 Oeste 0 932.3 1.8 95
2019-12-08 23:00:00 6.3 9 Noroeste 22 Oeste 0 931.8 1.3 96
2019-12-08 22:00:00 6.3 8 Noroeste 23 Noroeste 0.2 931 1.1 96
2019-12-08 21:00:00 7.2 8 Oeste 19 Noroeste 0 930.5 1.4 95
2019-12-08 20:00:00 8.2 6 Oeste 12 Oeste 0 930.5 1.9 95
2019-12-08 19:00:00 8.5 2 Oeste 9 Oeste 0 929.9 1.9 96
2019-12-08 18:00:00 9.1 5 Oeste 14 Oeste 0 929.1 1.3 95
2019-12-08 17:00:00 10.5 9 Oeste 28 Noroeste 0 928.6 1 94
2019-12-08 16:00:00 11.2 10 Oeste 24 Oeste 0.2 928 0.1 96
2019-12-08 15:00:00 11.1 9 Oeste 19 Oeste 0.4 927.8 -0.4 96
2019-12-08 14:00:00 11.2 9 Oeste 19 Oeste 0.4 927.6 -0.6 96
2019-12-08 13:00:00 10.9 4 Oeste 16 Noroeste 0.4 927.9 0.5 97
2019-12-08 12:00:00 9.7 2 Nordeste 8 Nordeste 0.2 928.2 1.2 97
2019-12-08 11:00:00 9.3 3 Nordeste 9 Norte 3 928.2 1.1 96
2019-12-08 10:00:00 9.1 3 Sudeste 8 Nordeste 0.6 927.4 0.5 96
2019-12-08 09:00:00 8.6 2 Nordeste 6 Oeste 0.6 927 0 96
2019-12-08 08:00:00 8.3 2 Sudeste 6 Norte 0.6 927.1 -0.1 93
2019-12-08 07:00:00 8 3 Nordeste 7 Nordeste 0 926.9 -0.3 93
2019-12-08 06:00:00 7.7 4 Este 8 Nordeste 0 927 -0.1 89
2019-12-08 05:00:00 7.6 0 Calma 7 Noroeste 0 927.2 -0.2 89
2019-12-08 04:00:00 7.6 4 Noroeste 6 Noroeste 0 927.2 -0.5 88
2019-12-08 03:00:00 7.6 5 Norte 9 Noroeste 0 927.1 -0.6 88
2019-12-08 02:00:00 7.6 5 Noroeste 8 Noroeste 0 927.4 -0.5 92
2019-12-08 01:00:00 7.3 6 Noroeste 11 Noroeste 0 927.7 0.1 93
2019-12-08 00:00:00 7 5 Noroeste 12 Noroeste 0 927.7 0.1 89
2019-12-07 23:00:00 7 6 Noroeste 11 Noroeste 0 927.9 0.5 83
2019-12-07 22:00:00 6.5 6 Noroeste 13 Noroeste 0 927.6 0.2 82
2019-12-07 21:00:00 6.3 6 Oeste 10 Oeste 0 927.6 0.6 82
2019-12-07 20:00:00 7.1 3 Sur 6 Sudoeste 0 927.4 0.9 74
2019-12-07 19:00:00 6.8 4 Sudoeste 10 Noroeste 0 927.4 1.4 80
2019-12-07 18:00:00 7.8 8 Noroeste 15 Oeste 0 927 0.8 78
2019-12-07 17:00:00 10.1 4 Oeste 10 Noroeste 0 926.5 -0.1 64
2019-12-07 16:00:00 10.3 4 Este 10 Este 0 926 -1.2 63
2019-12-07 15:00:00 10.5 4 Este 8 Este 0 926.2 -1.5 66
2019-12-07 14:00:00 9.8 5 Sudeste 11 Sudeste 0 926.6 -0.9 69
2019-12-07 13:00:00 9 4 Sudeste 8 Sudeste 0 927.2 -0.1 74
2019-12-07 12:00:00 9.3 3 Este 11 Noroeste 0 927.7 0.6 70
2019-12-07 11:00:00 5.7 8 Noroeste 12 Noroeste 0 927.5 0.9 81
2019-12-07 10:00:00 3.9 3 Norte 5 Norte 0 927.3 1.1 89
2019-12-07 09:00:00 2.4 3 Nordeste 12 Noroeste 0 927.1 0.8 88
2019-12-07 08:00:00 1.5 10 Noroeste 13 Noroeste 0 926.6 0.2 89
2019-12-07 07:00:00 1.1 6 Noroeste 15 Noroeste 0 926.2 -0.1 89
2019-12-07 06:00:00 1.1 8 Noroeste 13 Noroeste 0 926.3 0.1 88
2019-12-07 05:00:00 1.1 6 Noroeste 11 Noroeste 0 926.4 0 86
2019-12-07 04:00:00 1.8 6 Noroeste 15 Noroeste 0 926.3 -0.8 84
2019-12-07 03:00:00 1.6 9 Noroeste 15 Noroeste 0 926.2 -0.8 87
2019-12-07 02:00:00 2.9 6 Noroeste 9 Noroeste 0 926.4 -0.3 84
2019-12-07 01:00:00 3 5 Oeste 13 Oeste 0 927.1 0.7 83
2019-12-07 00:00:00 4.1 11 Oeste 17 Oeste 0 927 0.8 83
2019-12-06 23:00:00 3.1 8 Oeste 15 Noroeste 0 926.7 0.7 90
2019-12-06 22:00:00 3.2 7 Noroeste 13 Noroeste 0 926.4 0.7 89
2019-12-06 21:00:00 4.2 9 Noroeste 15 Oeste 0 926.2 0.7 88
2019-12-06 20:00:00 4.4 7 Noroeste 13 Noroeste 0 926 0.7 87
2019-12-06 19:00:00 5.7 8 Noroeste 12 Noroeste 0 925.7 0.4 82
2019-12-06 18:00:00 7.2 2 Este 6 Sudeste 0 925.5 0 77
2019-12-06 17:00:00 8.6 3 Este 8 Sudeste 0 925.3 -0.6 72
2019-12-06 16:00:00 8.7 3 Sudeste 10 Sudeste 0 925.3 -1 75
2019-12-06 15:00:00 9.9 4 Nordeste 10 Noroeste 0 925.5 -1.6 73
2019-12-06 14:00:00 8.5 3 Noroeste 9 Nordeste 0 925.9 -1.2 73
2019-12-06 13:00:00 7.6 4 Este 9 Sudeste 0 926.3 -0.4 79
2019-12-06 12:00:00 7.1 4 Sudeste 7 Norte 0 927.1 0.7 80
2019-12-06 11:00:00 4.5 2 Sudoeste 5 Sudoeste 0 927.1 1.4 90
2019-12-06 10:00:00 2.4 3 Norte 13 Noroeste 0 926.7 1.3 94
2019-12-06 09:00:00 1.6 7 Noroeste 17 Noroeste 0 926.4 1 95
2019-12-06 08:00:00 0.9 9 Noroeste 15 Oeste 0 925.7 0.1 95
2019-12-06 07:00:00 1 7 Noroeste 12 Noroeste 0 925.4 -0.1 94
2019-12-06 06:00:00 1.1 6 Noroeste 16 Noroeste 0 925.4 -0.2 95
2019-12-06 05:00:00 1.1 8 Noroeste 15 Noroeste 0 925.6 -0.2 95
2019-12-06 04:00:00 0.8 8 Noroeste 13 Noroeste 0 925.5 -0.4 95
2019-12-06 03:00:00 1.5 8 Noroeste 14 Noroeste 0 925.6 -0.2 94
2019-12-06 02:00:00 1.6 8 Noroeste 12 Noroeste 0 925.8 -0.1 93
2019-12-06 01:00:00 2 6 Noroeste 13 Noroeste 0 925.9 0.4 93
2019-12-06 00:00:00 2.5 7 Noroeste 12 Norte 0 925.8 0.7 91
2019-12-05 23:00:00 2.3 9 Noroeste 14 Noroeste 0 925.9 1.1 90
2019-12-05 22:00:00 3.3 6 Noroeste 13 Oeste 0 925.5 1.1 87
2019-12-05 21:00:00 3.7 8 Noroeste 12 Noroeste 0 925.1 1.2 87
2019-12-05 20:00:00 4.9 0 Calma 9 Noroeste 0 924.8 1.3 85
2019-12-05 19:00:00 5.6 6 Noroeste 9 Noroeste 0 924.4 1.2 81
2019-12-05 18:00:00 7 0 Calma 8 Sudoeste 0 923.9 0.5 74
2019-12-05 17:00:00 8.6 0 Calma 15 Nordeste 0 923.5 0.1 69
2019-12-05 16:00:00 9.5 5 Sudoeste 15 Oeste 0 923.2 -0.5 63
2019-12-05 15:00:00 9.9 7 Oeste 14 Oeste 0 923.4 -0.8 61
2019-12-05 14:00:00 9.3 3 Nordeste 13 Nordeste 0 923.4 -0.5 62
2019-12-05 13:00:00 7.9 6 Este 17 Sur 0 923.7 0.4 66
2019-12-05 12:00:00 6.2 4 Sudeste 12 Nordeste 0 924.2 1.5 76
2019-12-05 11:00:00 3.7 2 Este 9 Oeste 0 923.9 2 86
2019-12-05 10:00:00 1.6 3 Oeste 6 Noroeste 0 923.3 1.5 95
2019-12-05 09:00:00 -0.6 2 Este 9 Noroeste 0 922.7 1.4 96
2019-12-05 08:00:00 -0.4 0 Calma 6 Sudeste 0 921.9 0.8 96
2019-12-05 07:00:00 -1.3 5 Noroeste 12 Noroeste 0 921.8 0.9 95
2019-12-05 06:00:00 -0.8 3 Noroeste 8 Noroeste 0 921.3 1.2 95
2019-12-05 05:00:00 -0.7 9 Noroeste 13 Noroeste 0 921.1 0.7 94
2019-12-05 04:00:00 -0.2 8 Oeste 23 Noroeste 0 920.9 0.3 93
2019-12-05 03:00:00 0.2 8 Oeste 18 Oeste 0 920.1 -0.1 93
2019-12-05 02:00:00 -0.3 9 Noroeste 19 Noroeste 0 920.4 0.8 91
2019-12-05 01:00:00 0.9 8 Oeste 17 Noroeste 0 920.6 1.3 91
2019-12-05 00:00:00 1.3 9 Oeste 18 Oeste 0 920.2 1.4 88
2019-12-04 23:00:00 1.4 10 Noroeste 19 Noroeste 0 919.6 1.4 87
2019-12-04 22:00:00 1.8 10 Noroeste 19 Noroeste 0 919.3 1.7 82
2019-12-04 21:00:00 2.3 9 Noroeste 20 Noroeste 0 918.8 1.5 81
2019-12-04 20:00:00 2.8 10 Noroeste 17 Oeste 0 918.2 1.3 80
2019-12-04 19:00:00 3.4 9 Noroeste 17 Oeste 0 917.6 1.2 76
2019-12-04 18:00:00 4.6 9 Oeste 15 Oeste 0 917.3 1.1 72
2019-12-04 17:00:00 6.1 8 Oeste 18 Oeste 0 916.9 0.4 67
2019-12-04 16:00:00 7.5 10 Oeste 18 Oeste 0 916.4 -0.4 61
2019-12-04 15:00:00 8.6 2 Este 11 Sur 0 916.2 -1.1 58
2019-12-04 14:00:00 7.8 5 Sudeste 16 Este 0 916.5 -0.9 61
2019-12-04 13:00:00 6.5 7 Sudeste 15 Sudeste 0 916.8 -0.1 64
2019-12-04 12:00:00 5.1 5 Este 12 Oeste 0 917.3 1 70
2019-12-04 11:00:00 2.1 7 Noroeste 14 Noroeste 0 917.4 1.4 82
2019-12-04 10:00:00 0.5 3 Este 8 Nordeste 0 916.9 1 90
2019-12-04 09:00:00 -1.7 2 Este 7 Sudeste 0 916.3 0.5 93
2019-12-04 08:00:00 -2.3 4 Este 13 Norte 0 916 -0.2 93
2019-12-04 07:00:00 -2 0 Calma 5 Sudoeste 0 915.9 -0.6 94
2019-12-04 06:00:00 -2.4 2 Sur 8 Este 0 915.8 -0.8 95
2019-12-04 05:00:00 -2.5 5 Este 9 Este 0 916.2 -0.7 94
2019-12-04 04:00:00 -2.5 2 Norte 10 Noroeste 0 916.5 -0.7 94
2019-12-04 03:00:00 -2.2 2 Este 10 Nordeste 0 916.6 -0.8 94
2019-12-04 02:00:00 -2.2 4 Norte 10 Nordeste 0 916.9 -0.7 92
2019-12-04 01:00:00 -1.4 6 Norte 10 Noroeste 0 917.2 -0.3 89
2019-12-04 00:00:00 -1.4 4 Norte 12 Noroeste 0 917.4 -0.1 92
2019-12-03 23:00:00 -0.9 5 Noroeste 7 Norte 0 917.6 0.1 89
2019-12-03 22:00:00 -0.9 0 Calma 8 Noroeste 0 917.5 -0.1 87
2019-12-03 21:00:00 -0.3 6 Noroeste 11 Oeste 0 917.5 0 83
2019-12-03 20:00:00 0.1 6 Noroeste 12 Noroeste 0 917.5 0 82
2019-12-03 19:00:00 1.4 8 Noroeste 13 Oeste 0 917.6 -0.1 77
2019-12-03 18:00:00 3.2 0 Calma 8 Sudeste 0 917.5 -0.5 74
2019-12-03 17:00:00 5.1 2 Sur 12 Oeste 0 917.5 -1.2 62
2019-12-03 16:00:00 6.3 5 Noroeste 12 Norte 0 917.7 -2.2 55
2019-12-03 15:00:00 7.1 6 Sudeste 10 Sudeste 0 918 -3 50
2019-12-03 14:00:00 6.7 5 Sudeste 12 Este 0 918.7 -2.5 52
2019-12-03 13:00:00 6.3 6 Sudeste 12 Este 0 919.9 -1.3 54
2019-12-03 12:00:00 4.2 4 Este 14 Este 0 921 -0.5 73
2019-12-03 11:00:00 1.7 3 Noroeste 8 Norte 0 921.2 -0.1 80
2019-12-03 10:00:00 -0.5 2 Norte 11 Noroeste 0 921.2 -0.1 90
2019-12-03 09:00:00 -2.9 6 Noroeste 10 Noroeste 0 921.5 0.4 93
2019-12-03 08:00:00 -2.6 5 Noroeste 8 Noroeste 0 921.3 -0.3 93
2019-12-03 07:00:00 -2.3 6 Noroeste 11 Oeste 0 921.3 -0.8 92
2019-12-03 06:00:00 -2.3 8 Noroeste 12 Noroeste 0 921.1 -1.6 92
2019-12-03 05:00:00 -2.1 5 Noroeste 11 Noroeste 0 921.6 -1.3 92
2019-12-03 04:00:00 -1.3 3 Noroeste 9 Noroeste 0 922.1 -1.2 88
2019-12-03 03:00:00 -0.3 5 Noroeste 9 Noroeste 0 922.7 -0.7 83
2019-12-03 02:00:00 0.4 6 Noroeste 9 Noroeste 0 922.9 -0.4 80
2019-12-03 01:00:00 0.9 5 Oeste 10 Oeste 0 923.3 -0.2 79
2019-12-03 00:00:00 2.4 3 Oeste 12 Este 0 923.4 0 74
2019-12-02 23:00:00 3.8 10 Este 18 Sudeste 0 923.3 0.3 68
2019-12-02 22:00:00 3.9 8 Este 14 Este 0 923.5 0.8 71
2019-12-02 21:00:00 3.9 5 Sur 18 Este 0 923.4 1.2 77
2019-12-02 20:00:00 4.5 5 Nordeste 12 Este 0 923 0.9 77
2019-12-02 19:00:00 5.8 9 Sudeste 16 Sudeste 0 922.7 0.9 68
2019-12-02 18:00:00 6.5 4 Sur 10 Este 0 922.2 0.1 71
2019-12-02 17:00:00 7.8 4 Este 19 Este 0 922.1 -0.1 67
2019-12-02 16:00:00 8.7 9 Sudeste 20 Nordeste 0 921.8 -1 65
2019-12-02 15:00:00 9.3 7 Este 20 Sudeste 0 922.1 -1.3 61
2019-12-02 14:00:00 10 8 Este 15 Este 0 922.2 -1.1 62
2019-12-02 13:00:00 9.6 7 Norte 12 Noroeste 0 922.8 0 66
2019-12-02 12:00:00 8.5 5 Noroeste 14 Noroeste 0 923.4 1 71
2019-12-02 11:00:00 6.6 6 Noroeste 15 Oeste 0 923.3 1.4 78
2019-12-02 10:00:00 4.4 5 Oeste 12 Oeste 0 922.8 1.5 84
2019-12-02 09:00:00 1.9 3 Noroeste 9 Noroeste 0 922.4 1.4 89
2019-12-02 08:00:00 1.4 4 Sudoeste 9 Noroeste 0 921.9 1.2 93
2019-12-02 07:00:00 1 7 Noroeste 13 Noroeste 0 921.3 0.5 96
2019-12-02 06:00:00 1 8 Oeste 13 Oeste 0 921 0.3 95
2019-12-02 05:00:00 1.6 8 Oeste 16 Oeste 0 920.7 0.1 94
2019-12-02 04:00:00 2 9 Oeste 16 Oeste 0 920.8 0.4 93
2019-12-02 03:00:00 2.4 6 Oeste 19 Norte 0 920.7 0.5 89
2019-12-02 02:00:00 3.4 10 Noroeste 37 Noroeste 0 920.6 0.2 85
2019-12-02 01:00:00 3.9 9 Noroeste 28 Oeste 0 920.4 0.3 81
2019-12-02 00:00:00 3.9 12 Oeste 24 Oeste 0 920.2 0.4 84
2019-12-01 23:00:00 4.7 6 Sudoeste 17 Sur 0 920.4 1.3 77
2019-12-01 22:00:00 5.1 4 Sudeste 22 Noroeste 0 920.1 1.8 79
2019-12-01 21:00:00 5.3 4 Noroeste 26 Norte 0 919.8 2.2 84
2019-12-01 20:00:00 5.7 8 Noroeste 23 Oeste 0 919.1 2.3 84
2019-12-01 19:00:00 6.2 8 Noroeste 19 Oeste 0 918.3 2.3 80
2019-12-01 18:00:00 6.7 9 Noroeste 19 Noroeste 0 917.6 1.7 79
2019-12-01 17:00:00 7.8 10 Noroeste 22 Norte 0 916.8 1 74
2019-12-01 16:00:00 8.4 5 Noroeste 20 Noroeste 0 916 0.2 77
2019-12-01 15:00:00 8.5 9 Norte 25 Norte 0 915.9 0.2 79
2019-12-01 14:00:00 8.9 5 Norte 17 Norte 0 915.8 0.7 79
2019-12-01 13:00:00 7.4 6 Norte 14 Norte 0 915.8 1.8 87
2019-12-01 12:00:00 6.9 2 Sudeste 7 Sudeste 0 915.7 2.7 92
2019-12-01 11:00:00 6 4 Este 12 Este 0 915.1 2.8 95
2019-12-01 10:00:00 5.3 4 Este 8 Sudeste 0 914 2.5 97
2019-12-01 09:00:00 4.5 3 Sur 14 Este 0.4 913 2.2 97
2019-12-01 08:00:00 4.5 6 Este 12 Este 1.8 912.3 1.3 96
2019-12-01 07:00:00 4.3 5 Este 12 Nordeste 2 911.5 0.3 95
2019-12-01 06:00:00 4.1 5 Norte 13 Nordeste 0.2 910.8 -1.5 94
2019-12-01 05:00:00 4.8 9 Nordeste 17 Nordeste 0 911 -1.6 95
2019-12-01 04:00:00 4.9 9 Noroeste 20 Oeste 1 911.2 -2.5 94
2019-12-01 03:00:00 5.5 10 Oeste 21 Sudoeste 1 912.3 -2.6 92
2019-12-01 02:00:00 5.6 4 Sudeste 23 Este 0.2 912.6 -2.8 94
2019-12-01 01:00:00 5.1 7 Este 30 Oeste 1.2 913.7 -2.7 92
2019-12-01 00:00:00 5.9 4 Oeste 17 Sudoeste 0.6 914.9 -2 91
2019-11-30 23:00:00 6.2 10 Sudoeste 36 Sudoeste 0.2 915.4 -1.8 86
2019-11-30 22:00:00 6.5 10 Sudoeste 32 Sudoeste 0 916.4 -1 81
2019-11-30 21:00:00 6.5 6 Oeste 26 Sudoeste 0 916.9 -1 83
2019-11-30 20:00:00 6.6 10 Sudoeste 29 Sudoeste 0 917.2 -0.5 83
2019-11-30 19:00:00 6.1 10 Oeste 24 Sudoeste 0.2 917.4 -0.4 86
2019-11-30 18:00:00 6.7 13 Oeste 38 Oeste 0 917.9 -0.1 81
2019-11-30 17:00:00 7.4 15 Oeste 44 Oeste 0 917.7 -0.8 80
2019-11-30 16:00:00 8.5 19 Oeste 38 Oeste 0 917.8 -1.5 77
2019-11-30 15:00:00 9.4 18 Oeste 46 Oeste 0 918 -1.7 71
2019-11-30 14:00:00 11.1 13 Oeste 33 Oeste 0 918.5 -1.1 76
2019-11-30 13:00:00 9.5 12 Oeste 28 Sudoeste 0 919.3 -0.2 78
2019-11-30 12:00:00 8.2 14 Oeste 42 Oeste 0.2 919.7 0.7 87
2019-11-30 11:00:00 9.1 14 Oeste 38 Oeste 0.8 919.6 1.5 91
2019-11-30 10:00:00 8.5 14 Oeste 29 Sudoeste 0.2 919.5 1.5 91
2019-11-30 09:00:00 9.2 13 Oeste 51 Noroeste 0.8 919 0.5 93
2019-11-30 08:00:00 10.7 12 Oeste 37 Sudoeste 2.8 918.1 -0.5 94
2019-11-30 07:00:00 10.7 15 Oeste 39 Oeste 0 918 -1.5 92
2019-11-30 06:00:00 11.3 18 Oeste 45 Oeste 4.4 918.5 -1.2 94
2019-11-30 05:00:00 11.9 15 Oeste 39 Sudoeste 0.4 918.6 -1.5 90
2019-11-30 04:00:00 11.6 10 Oeste 33 Sudoeste 0.2 919.5 -1.5 93
2019-11-30 03:00:00 11.3 13 Sudoeste 30 Sudoeste 0.2 919.7 -1.7 93
2019-11-30 02:00:00 9.9 5 Oeste 12 Norte 0.2 920.1 -1.4 97
2019-11-30 01:00:00 9.6 3 Este 13 Nordeste 0.2 921 -1.1 96
2019-11-30 00:00:00 9.6 3 Nordeste 8 Nordeste 0 921.4 -0.9 96
2019-11-29 23:00:00 9.6 4 Nordeste 15 Sur 0 921.5 -0.6 96
2019-11-29 22:00:00 9.7 3 Nordeste 9 Este 0.2 922.1 -0.4 95
2019-11-29 21:00:00 9.8 3 Nordeste 7 Este 0 922.3 -0.1 93
2019-11-29 20:00:00 10 0 Calma 7 Norte 0 922.1 -0.2 91
2019-11-29 19:00:00 10 4 Norte 9 Este 0 922.5 0.5 90
2019-11-29 18:00:00 10.2 0 Calma 9 Este 0 922.4 0 88
2019-11-29 17:00:00 10.9 3 Este 8 Este 0 922.3 -0.6 82
2019-11-29 16:00:00 11.6 5 Este 12 Nordeste 0 922 -1.2 83
2019-11-29 15:00:00 12.5 5 Este 12 Este 0 922.4 -1.5 79
2019-11-29 14:00:00 13 5 Este 11 Sudeste 0 922.9 -0.6 76
2019-11-29 13:00:00 11.8 4 Este 11 Este 0 923.2 0.3 80
2019-11-29 12:00:00 11.2 3 Noroeste 13 Noroeste 0 923.9 1.2 80
2019-11-29 11:00:00 8.1 3 Noroeste 13 Noroeste 0 923.5 1.4 91
2019-11-29 10:00:00 6.8 3 Sudoeste 12 Noroeste 0 922.9 1.5 94
2019-11-29 09:00:00 6.4 6 Noroeste 13 Sudoeste 0 922.7 1.6 93
2019-11-29 08:00:00 6.2 6 Oeste 15 Oeste 0 922.1 1.6 93
2019-11-29 07:00:00 6.6 8 Noroeste 18 Oeste 0 921.4 0.9 91
2019-11-29 06:00:00 5.9 7 Noroeste 17 Oeste 0 921.1 0.8 93
2019-11-29 05:00:00 6.3 8 Noroeste 13 Noroeste 0 920.5 0.6 94
2019-11-29 04:00:00 7.1 5 Noroeste 11 Noroeste 0 920.5 0.9 93
2019-11-29 03:00:00 7.6 5 Oeste 14 Oeste 0 920.3 1.2 92
2019-11-29 02:00:00 8.3 10 Oeste 20 Oeste 0 919.9 1.2 91
2019-11-29 01:00:00 9.1 11 Oeste 26 Oeste 0 919.6 1.2 92
2019-11-29 00:00:00 9.6 13 Oeste 24 Oeste 0 919.1 1.5 92
2019-11-28 23:00:00 10.1 12 Oeste 22 Oeste 0 918.7 2.3 92
2019-11-28 22:00:00 10.9 10 Oeste 28 Sudoeste 0 918.4 3 93
2019-11-28 21:00:00 11.1 11 Oeste 24 Oeste 0 917.6 2.8 94
2019-11-28 20:00:00 11.4 15 Oeste 43 Oeste 0.6 916.4 1.3 94
2019-11-28 19:00:00 11.5 22 Oeste 47 Oeste 0.8 915.4 0.7 94
2019-11-28 18:00:00 11.3 22 Oeste 44 Oeste 0.2 914.8 -0.3 92
2019-11-28 17:00:00 10.9 9 Oeste 28 Oeste 1.8 915.1 -0.4 91
2019-11-28 16:00:00 11.2 12 Oeste 30 Sudoeste 0.4 914.7 -1.3 85
2019-11-28 15:00:00 11.1 13 Oeste 26 Sudoeste 0.2 915.1 -1.5 86
2019-11-28 14:00:00 11.8 5 Oeste 35 Sudoeste 0.4 915.5 -1.2 82
2019-11-28 13:00:00 13.6 12 Sudoeste 41 Sudoeste 0 916 -0.6 69
2019-11-28 12:00:00 12.1 22 Oeste 47 Oeste 0 916.6 0.5 76
2019-11-28 11:00:00 12.1 13 Oeste 31 Oeste 0 916.7 0.9 82
2019-11-28 10:00:00 11 6 Sudoeste 17 Oeste 0 916.6 0.9 86
2019-11-28 09:00:00 10.4 5 Sudoeste 23 Oeste 0 916.1 0.7 85
2019-11-28 08:00:00 10.5 10 Oeste 22 Oeste 0 915.8 0.6 87
2019-11-28 07:00:00 10.3 8 Oeste 31 Oeste 0 915.7 0.6 88
2019-11-28 06:00:00 10.3 12 Oeste 31 Oeste 0 915.4 0.4 88
2019-11-28 05:00:00 10.4 17 Oeste 40 Sudoeste 0 915.2 -0.2 91
2019-11-28 04:00:00 10.4 17 Oeste 38 Oeste 0 915.1 -0.5 91
2019-11-28 03:00:00 9.8 14 Oeste 28 Oeste 0.4 915 -0.4 92
2019-11-28 02:00:00 9.6 16 Oeste 37 Sudoeste 0 915.4 0.2 93
2019-11-28 01:00:00 9.4 16 Oeste 38 Oeste 0 915.6 0.5 92
2019-11-28 00:00:00 9.1 17 Oeste 40 Oeste 0.2 915.4 0.6 93
2019-11-27 23:00:00 8.9 16 Oeste 45 Sudoeste 0.2 915.2 0.7 93
2019-11-27 22:00:00 8.3 16 Oeste 38 Oeste 0.6 915.1 0.5 94
2019-11-27 21:00:00 7.9 9 Oeste 43 Sudoeste 0 914.8 0.6 94
2019-11-27 20:00:00 7.7 18 Oeste 57 Sudoeste 0.2 914.5 0.9 92
2019-11-27 19:00:00 8 17 Oeste 40 Oeste 0.2 914.6 1.3 93
2019-11-27 18:00:00 8.1 11 Oeste 40 Sudoeste 0 914.2 0.9 89
2019-11-27 17:00:00 8 18 Oeste 48 Oeste 0 913.6 -0.3 92
2019-11-27 16:00:00 8.4 23 Oeste 53 Oeste 1.2 913.3 -0.7 92
2019-11-27 15:00:00 9.1 21 Oeste 46 Oeste 0.8 913.3 -1.3 88
2019-11-27 14:00:00 8.4 11 Oeste 34 Oeste 3 913.9 -0.5 93
2019-11-27 06:00:00 7.9 19 Oeste 44 Oeste 0 912.3 0.9 86
2019-11-27 05:00:00 8.1 18 Oeste 53 Oeste 0 912 0.7 85
2019-11-27 04:00:00 8 21 Oeste 57 Sudoeste 0 912 0.9 82
2019-11-27 03:00:00 7.9 26 Oeste 51 Sudoeste 0 911.4 0.5 82
2019-11-27 02:00:00 7.8 25 Oeste 63 Sudoeste 0 911.3 0.9 86
2019-11-27 01:00:00 7.6 27 Oeste 59 Oeste 0 911.1 0.8 81
2019-11-27 00:00:00 6.8 21 Oeste 47 Oeste 0 910.9 0.8 84
2019-11-26 23:00:00 6.7 22 Oeste 56 Sudoeste 0 910.4 1.6 87
2019-11-26 22:00:00 6.9 22 Oeste 51 Oeste 0 910.3 1.5 88
2019-11-26 21:00:00 7.6 21 Oeste 44 Oeste 0.4 910.1 2.6 91
2019-11-26 20:00:00 7.6 26 Oeste 70 Sudoeste 0.2 908.8 2 87
2019-11-26 19:00:00 8.8 32 Oeste 64 Sudoeste 2.2 908.8 1.8 88
2019-11-26 18:00:00 9.4 25 Sudoeste 72 Sudoeste 3.8 907.5 0.4 88
2019-11-26 17:00:00 11 33 Sudoeste 76 Oeste 0.4 906.8 -2.3 78
2019-11-26 16:00:00 12.8 32 Sudoeste 77 Sudoeste 0 907 -3.8 65
2019-11-26 15:00:00 14.1 26 Sudoeste 65 Sudoeste 0 907.1 -4.8 57
2019-11-26 14:00:00 14.6 20 Sudoeste 55 Sudoeste 0 909.1 -3.6 56
2019-11-26 13:00:00 14.8 11 Sudoeste 44 Sudoeste 0 910.8 -2.3 55
2019-11-26 12:00:00 14.3 10 Sudoeste 33 Sudoeste 0 911.9 -1.1 59
2019-11-26 11:00:00 12.5 9 Sudoeste 28 Sur 0 912.7 -0.3 72
2019-11-26 10:00:00 10.7 12 Oeste -- -- 0 913.1 0.3 82
2019-11-26 09:00:00 10.5 15 Oeste 37 Oeste 0 913 0.1 85
2019-11-26 08:00:00 10.4 7 Oeste 16 Oeste 0 913 -0.4 95
2019-11-26 07:00:00 10.4 6 Nordeste 17 Nordeste 0.4 912.8 -1.1 96
2019-11-26 06:00:00 10.4 9 Este 17 Nordeste 0.2 912.9 -1.6 94
2019-11-26 05:00:00 11.2 6 Este 33 Sudoeste 0.2 913.4 -1.6 88
2019-11-26 04:00:00 12 13 Sudoeste 36 Sur 0.2 913.9 -2.1 85
2019-11-26 03:00:00 9.5 8 Nordeste 17 Nordeste 0 914.5 -2.2 94
2019-11-26 02:00:00 9.5 8 Este 18 Nordeste 0 915 -2.3 94
2019-11-26 01:00:00 9.2 6 Norte 18 Nordeste 0 916 -1.5 93
2019-11-26 00:00:00 9 5 Nordeste 12 Nordeste 0 916.7 -1 90
2019-11-25 23:00:00 8.5 4 Nordeste 12 Norte 0 917.3 -0.7 92
2019-11-25 22:00:00 8.1 5 Sudoeste 14 Norte 0 917.5 -0.8 92
2019-11-25 21:00:00 8.2 3 Noroeste 12 Sudoeste 0 917.7 -0.4 92
2019-11-25 20:00:00 8.3 6 Noroeste 11 Sudoeste 0 918 0.2 90
2019-11-25 19:00:00 9.1 4 Este 22 Sudoeste 0 918.3 0.9 85
2019-11-25 18:00:00 10.1 8 Oeste 27 Oeste 0 918.1 0.7 76
2019-11-25 17:00:00 10.9 12 Oeste 31 Sudoeste 0 917.8 0.4 76
2019-11-25 16:00:00 11.9 14 Oeste 33 Sudoeste 0 917.4 -0.3 73
2019-11-25 15:00:00 12.3 14 Oeste 33 Sudoeste 0 917.4 -0.5 74
2019-11-25 14:00:00 12.8 11 Oeste 22 Oeste 0 917.4 0 80
2019-11-25 13:00:00 11.4 12 Oeste 26 Oeste 0 917.7 1.1 82
2019-11-25 12:00:00 10.4 10 Oeste 31 Sudoeste 0 917.9 2 89
2019-11-25 11:00:00 10.2 14 Oeste 33 Sudoeste 0 917.4 1.5 87
2019-11-25 10:00:00 9.8 14 Oeste 37 Oeste 0 916.6 1 89
2019-11-25 09:00:00 8.9 16 Sudoeste 34 Sudoeste 0 915.9 0.8 89
2019-11-25 08:00:00 8.6 16 Oeste 36 Oeste 0 915.9 1.4 89
2019-11-25 07:00:00 8.9 12 Oeste 31 Noroeste 0 915.6 1.3 93
2019-11-25 06:00:00 9.4 15 Oeste 49 Oeste 0.2 915.1 0.7 93
2019-11-25 05:00:00 9.8 13 Oeste 28 Oeste 0 914.5 0.1 94
2019-11-25 04:00:00 9.3 14 Oeste 30 Sudoeste 0 914.3 -0.1 90
2019-11-25 03:00:00 9.1 14 Oeste 44 Sudoeste 0 914.4 0.4 91
2019-11-25 02:00:00 9.6 17 Oeste 43 Oeste 0.2 914.4 0.7 92
2019-11-25 01:00:00 10.2 10 Oeste 25 Oeste 0.6 914.4 0.8 95
2019-11-25 00:00:00 10.2 10 Oeste 33 Oeste 0.2 914 0.7 94
2019-11-24 23:00:00 9.8 14 Oeste 32 Oeste 1 913.7 0.5 97
2019-11-24 22:00:00 8.7 4 Norte 27 Oeste 0.8 913.6 0.4 95
2019-11-24 21:00:00 10.4 13 Oeste 53 Sudoeste 0.6 913.3 -0.2 95
2019-11-24 20:00:00 8.3 5 Norte 21 Sudoeste 0.4 913.2 -0.7 94
2019-11-24 19:00:00 9.4 6 Oeste 40 Sudoeste 0 913.2 -1.4 91
2019-11-24 18:00:00 7.6 6 Nordeste 27 Nordeste 0.4 913.5 -1.9 94
2019-11-24 17:00:00 7.8 9 Este 22 Este 0 913.9 -2 93
2019-11-24 16:00:00 7.6 11 Este 22 Este 0 914.6 -1.9 92
2019-11-24 15:00:00 7.6 7 Este 15 Este 0 915.4 -2.1 93
2019-11-24 14:00:00 7.5 6 Nordeste 14 Este 0 915.9 -2.3 92
2019-11-24 13:00:00 7 3 Norte 9 Nordeste 0.4 916.5 -1.2 93
2019-11-24 12:00:00 6.7 5 Nordeste 11 Sudeste 0 917.5 0.4 90
2019-11-24 11:00:00 5.5 3 Este 9 Oeste 0 918.2 1.1 92
2019-11-24 10:00:00 4.8 4 Nordeste 8 Norte 0 917.7 0.8 92
2019-11-24 09:00:00 4.3 3 Norte 7 Norte 0 917.1 0 93
2019-11-24 08:00:00 4.2 3 Nordeste 10 Nordeste 0 917.1 -0.4 95
2019-11-24 07:00:00 4.4 4 Nordeste 22 Sudoeste 0 916.9 -0.3 93
2019-11-24 06:00:00 4 6 Oeste 13 Oeste 0 917.1 0.4 95
2019-11-24 05:00:00 3.4 5 Oeste 14 Oeste 0 917.5 0.7 95
2019-11-24 04:00:00 3.8 8 Oeste 24 Oeste 0 917.2 0.4 94
2019-11-24 03:00:00 3.6 6 Oeste 17 Oeste 0 916.7 0.4 93
2019-11-24 02:00:00 4.2 7 Oeste 16 Oeste 0 916.8 0.7 94
2019-11-24 01:00:00 5 9 Oeste 22 Oeste 0 916.8 0.8 93
2019-11-24 00:00:00 5.2 12 Oeste 31 Oeste 0.2 916.3 0.7 93
2019-11-23 23:00:00 5.4 12 Oeste 27 Oeste 0 916.1 0.9 95
2019-11-23 22:00:00 5.4 8 Oeste 30 Oeste 0 916 1.6 94
2019-11-23 21:00:00 5.5 11 Oeste 29 Oeste 0 915.6 2 94
2019-11-23 20:00:00 5.6 13 Oeste 41 Oeste 0.2 915.2 2.2 94
2019-11-23 19:00:00 5.8 13 Oeste 35 Oeste 0.4 914.4 2.2 95
2019-11-23 18:00:00 6 17 Oeste 36 Oeste 0.2 913.6 1.9 94
2019-11-23 17:00:00 6.2 13 Oeste 36 Oeste 0.4 913 1.5 92
2019-11-23 16:00:00 7.5 18 Oeste 34 Oeste 0 912.2 1.2 82
2019-11-23 15:00:00 8.1 17 Oeste 39 Oeste 0 911.7 0.9 83
2019-11-23 14:00:00 6.5 18 Oeste 36 Oeste 1 911.5 1.9 93
2019-11-23 13:00:00 6.8 12 Oeste 36 Oeste 0.8 911 2.5 95
2019-11-23 12:00:00 5.5 15 Oeste 41 Oeste 2.2 910.8 3.4 94
2019-11-23 11:00:00 6.4 18 Oeste 51 Oeste 0 909.6 3.6 94
2019-11-23 10:00:00 4.5 21 Oeste 46 Oeste 2.8 908.5 3.7 95
2019-11-23 09:00:00 4 7 Noroeste 41 Oeste 2 907.4 4.1 95
2019-11-23 08:00:00 4.1 15 Oeste 41 Noroeste 1 906 3.5 96
2019-11-23 07:00:00 3.9 19 Oeste 46 Oeste 1.2 904.8 2.8 95
2019-11-23 06:00:00 3.6 23 Oeste 48 Oeste 0.2 903.3 2.7 94
2019-11-23 05:00:00 3.9 19 Oeste 45 Oeste 0 902.5 3.3 94
2019-11-23 04:00:00 4 20 Oeste 45 Oeste 0 902 3.8 94
2019-11-23 03:00:00 4.1 19 Oeste 66 Oeste 0.4 900.6 3.5 94
2019-11-23 02:00:00 4.2 24 Oeste 57 Oeste 3.6 899.2 3.7 95
2019-11-23 01:00:00 4.4 28 Oeste 57 Oeste 4 898.2 3.6 95
2019-11-23 00:00:00 4.7 27 Oeste 62 Oeste 3.2 897.1 3.5 94
2019-11-22 23:00:00 5.3 31 Oeste 62 Oeste 2.2 895.5 2.6 92
2019-11-22 22:00:00 6.1 30 Oeste 61 Oeste 1.6 894.6 2 93
2019-11-22 21:00:00 6.5 24 Oeste 59 Oeste 1.8 893.6 1.9 93
2019-11-22 20:00:00 6.8 27 Oeste 59 Oeste 0.4 892.9 1.3 93
2019-11-22 19:00:00 7.2 25 Oeste 57 Oeste 0.6 892.6 0.3 92
2019-11-22 18:00:00 7.3 19 Oeste 60 Sudoeste 4 891.7 -0.6 94
2019-11-22 17:00:00 7.4 20 Oeste 46 Oeste 1.6 891.6 -1.1 92
2019-11-22 16:00:00 6.8 17 Sudoeste 53 Sudoeste 3.4 892.3 -0.7 89
2019-11-22 15:00:00 8.7 22 Oeste 58 Sudoeste 1 892.3 -0.7 82
2019-11-22 14:00:00 8.4 22 Oeste 55 Sudoeste 0.4 892.7 -0.6 87
2019-11-22 13:00:00 8.9 26 Oeste 66 Oeste 2.8 893 -0.2 87
2019-11-22 12:00:00 10.6 17 Sudoeste 49 Oeste 0.2 893 -0.7 88
2019-11-22 11:00:00 10.3 17 Sudoeste 46 Sudoeste 1.6 893.3 -1.9 87
2019-11-22 10:00:00 10 18 Sudoeste 43 Sur 0.8 893.2 -3.7 87
2019-11-22 09:00:00 6.9 11 Norte 37 Este 0.2 893.7 -4.4 95
2019-11-22 08:00:00 7 14 Este 38 Sudoeste 0 895.2 -4.1 90
2019-11-22 07:00:00 7.4 8 Sur 33 Sur 0.4 896.9 -4.1 87
2019-11-22 06:00:00 6.1 8 Este 25 Norte 0.8 898.1 -4.5 95
2019-11-22 05:00:00 5.6 9 Norte 27 Este 0.8 899.3 -4.7 94
2019-11-22 04:00:00 5.6 6 Nordeste 21 Nordeste 0.6 901 -4.4 91
2019-11-22 03:00:00 5.8 7 Norte 29 Este 0 902.6 -4.1 86
2019-11-22 02:00:00 5.8 5 Nordeste 28 Nordeste 0 904 -3.6 88
2019-11-22 01:00:00 5.3 12 Sudeste 24 Este 0 905.4 -2.5 89
2019-11-22 00:00:00 5 3 Este 11 Nordeste 0 906.7 -1.4 86
2019-11-21 23:00:00 4.6 2 Norte 11 Nordeste 0 907.6 -1 87
2019-11-21 22:00:00 4.5 3 Sudeste 22 Este 0 907.9 -0.9 81
2019-11-21 21:00:00 4.4 0 Calma 10 Noroeste 0 908.1 -0.7 82
2019-11-21 20:00:00 4 6 Norte 10 Noroeste 0 908.6 -0.1 86
2019-11-21 19:00:00 4.2 8 Noroeste 15 Noroeste 0 908.8 -0.1 88
2019-11-21 18:00:00 5.4 2 Norte 14 Sudoeste 0 908.8 -0.1 80
2019-11-21 17:00:00 6.8 3 Sudoeste 15 Noroeste 0 908.7 -0.6 79
2019-11-21 16:00:00 7.4 8 Oeste 27 Oeste 0.2 908.9 -1 81
2019-11-21 15:00:00 7.9 9 Oeste 29 Sudoeste 0.2 908.9 -1 78
2019-11-21 14:00:00 9 13 Oeste 26 Oeste 0.2 909.3 -0.5 69
2019-11-21 13:00:00 8.6 11 Oeste 28 Sudoeste 0 909.9 0.4 75
2019-11-21 12:00:00 9.7 10 Sudoeste 30 Oeste 0 909.9 0.5 59
2019-11-21 11:00:00 7.4 10 Sudoeste 23 Oeste 0 909.8 0.8 70
2019-11-21 10:00:00 5.6 11 Sudoeste 23 Sudoeste 0 909.5 0.8 81
2019-11-21 09:00:00 3.4 9 Oeste 22 Oeste 0 909.4 0.9 92
2019-11-21 08:00:00 3.1 9 Oeste 16 Oeste 0 909 0.7 91
2019-11-21 07:00:00 3.8 8 Oeste 19 Oeste 0 908.7 0.3 92
2019-11-21 06:00:00 3.7 9 Oeste 20 Oeste 0 908.5 0.4 91
2019-11-21 05:00:00 4.6 9 Oeste 23 Oeste 0 908.3 -0.1 92
2019-11-21 04:00:00 4.2 8 Noroeste 21 Oeste 0 908.4 -0.1 92
2019-11-21 03:00:00 4.3 5 Noroeste 9 Oeste 0.2 908.1 -0.6 93
2019-11-21 02:00:00 4.2 3 Nordeste 8 Nordeste 0 908.4 -0.5 92
2019-11-21 01:00:00 4.2 3 Nordeste 10 Sudeste 0 908.5 -0.3 92
2019-11-21 00:00:00 4.4 4 Sudeste 8 Este 0 908.7 -0.3 91
2019-11-20 23:00:00 4.2 2 Nordeste 11 Noroeste 0 908.9 0.1 92
2019-11-20 22:00:00 4.2 3 Oeste 10 Sudoeste 0 908.8 0.5 92
2019-11-20 21:00:00 3.9 5 Norte 9 Nordeste 0 909 0.6 92
2019-11-20 20:00:00 4.8 2 Este 11 Nordeste 0 908.8 0.4 92
2019-11-20 19:00:00 5.2 3 Noroeste 8 Sudoeste 0 908.3 0.1 91
2019-11-20 18:00:00 5.9 6 Oeste 19 Oeste 0 908.4 -0.2 85
2019-11-20 17:00:00 7.4 5 Oeste 22 Sudoeste 0 908.4 -0.7 82
2019-11-20 16:00:00 9.3 6 Oeste 27 Sudoeste 0 908.2 -1.7 68
2019-11-20 15:00:00 9.7 9 Sudoeste 26 Oeste 0 908.6 -1.8 66
2019-11-20 14:00:00 8 5 Este 13 Este 0 909.1 -1.6 85
2019-11-20 13:00:00 6.7 6 Este 15 Este 0 909.9 -0.9 95
2019-11-20 12:00:00 6.3 8 Este 13 Este 0 910.4 -0.4 96
2019-11-20 11:00:00 5.5 4 Este 10 Nordeste 0.2 910.7 -0.2 97
2019-11-20 10:00:00 4.9 3 Este 8 Nordeste 0.2 910.8 -0.4 97
2019-11-20 09:00:00 4.4 3 Nordeste 10 Este 0 910.8 -0.7 97
2019-11-20 08:00:00 4.3 5 Este 12 Norte 0 910.9 -0.9 97
2019-11-20 07:00:00 4.3 4 Nordeste 8 Nordeste 0.2 911.2 -1.4 97
2019-11-20 06:00:00 4.2 2 Oeste 7 Este 0 911.5 -1.5 96
2019-11-20 05:00:00 4.3 2 Nordeste 6 Este 0 911.8 -1.8 96
2019-11-20 04:00:00 4.3 3 Nordeste 7 Nordeste 0 912.6 -1.6 96
2019-11-20 03:00:00 4.3 2 Norte 8 Este 0 913 -1.6 96
2019-11-20 02:00:00 4.4 3 Este 12 Nordeste 0 913.6 -1.6 96
2019-11-20 01:00:00 4.2 5 Nordeste 14 Este 0 914.2 -1.3 96
2019-11-20 00:00:00 4.1 6 Nordeste 14 Nordeste 0.2 914.6 -1.2 96
2019-11-19 23:00:00 4.1 6 Nordeste 15 Este 0 915.2 -1 96
2019-11-19 22:00:00 4 9 Este 15 Este 0.6 915.5 -0.7 96
2019-11-19 21:00:00 4.2 5 Nordeste 13 Nordeste 1.2 915.8 -0.5 95
2019-11-19 20:00:00 4.5 2 Este 10 Norte 1.8 916.2 -0.2 93
2019-11-19 19:00:00 4.9 3 Norte 9 Nordeste 0 916.2 -0.5 85
2019-11-19 18:00:00 5.2 3 Nordeste 10 Este 0 916.3 -0.9 83
2019-11-19 17:00:00 5.7 6 Este 12 Este 0 916.4 -1.3 82
2019-11-19 16:00:00 5.9 5 Nordeste 12 Este 0 916.7 -1.8 84
2019-11-19 15:00:00 6.4 7 Este 13 Nordeste 0 917.2 -2.1 81
2019-11-19 14:00:00 6 6 Este 11 Nordeste 0 917.7 -1.9 84
2019-11-19 13:00:00 4.3 6 Nordeste 11 Nordeste 0 918.5 -1.3 91
2019-11-19 12:00:00 3 4 Nordeste 11 Este 0 919.3 -0.4 94
2019-11-19 11:00:00 2.2 5 Este 9 Este 0 919.6 -0.1 96
2019-11-19 10:00:00 0.9 3 Nordeste 8 Noroeste 0 919.8 0 97
2019-11-19 09:00:00 0.2 4 Noroeste 8 Noroeste 0 919.7 0 97
2019-11-19 08:00:00 0 4 Noroeste 8 Noroeste 0 919.7 -0.4 97
2019-11-19 07:00:00 0.1 4 Norte 7 Norte 0 919.8 -0.4 96
2019-11-19 06:00:00 0 2 Oeste 6 Noroeste 0 919.7 -0.9 96
2019-11-19 05:00:00 0.1 3 Norte 8 Noroeste 0 920.1 -0.6 96
2019-11-19 04:00:00 -0.2 4 Noroeste 10 Noroeste 0 920.2 -0.8 95
2019-11-19 03:00:00 -0.1 3 Noroeste 7 Noroeste 0 920.6 -0.7 95
2019-11-19 02:00:00 -0.2 5 Noroeste 14 Noroeste 0 920.7 -0.8 95
2019-11-19 01:00:00 -0.5 6 Noroeste 12 Noroeste 0 921 -0.5 95
2019-11-19 00:00:00 0 7 Noroeste 14 Noroeste 0 921.3 -0.3 95
2019-11-18 23:00:00 0 8 Noroeste 13 Noroeste 0 921.5 0 95
2019-11-18 22:00:00 0.6 7 Noroeste 12 Noroeste 0 921.5 0 94
2019-11-18 21:00:00 1.1 5 Noroeste 15 Oeste 0 921.6 0.4 93
2019-11-18 20:00:00 1.7 6 Noroeste 12 Oeste 0 921.5 0.4 92
2019-11-18 19:00:00 3.2 6 Oeste 14 Oeste 0 921.5 0.5 89
2019-11-18 18:00:00 3.9 4 Oeste 9 Noroeste 0 921.2 0.3 86
2019-11-18 17:00:00 5.8 4 Noroeste 14 Norte 0 921.1 -0.3 80
2019-11-18 16:00:00 7.3 6 Norte 14 Noroeste 0 921 -0.4 76
2019-11-18 15:00:00 7.7 5 Noroeste 18 Norte 0 920.9 -1 73
2019-11-18 14:00:00 9.1 9 Noroeste 18 Norte 0.2 921.4 -0.7 66
2019-11-18 13:00:00 8.5 7 Noroeste 23 Noroeste 0 921.4 -0.5 74
2019-11-18 12:00:00 6.5 7 Noroeste 17 Oeste 0 921.9 0.8 82
2019-11-18 11:00:00 5.4 10 Oeste 19 Oeste 0 922.1 1.9 90
2019-11-18 10:00:00 4.1 7 Oeste 14 Noroeste 0 921.9 2.1 94
2019-11-18 09:00:00 3.7 6 Noroeste 14 Oeste 0 921.1 1.5 95
2019-11-18 08:00:00 3.6 5 Oeste 12 Oeste 0 920.2 1.1 95
2019-11-18 07:00:00 3.5 5 Oeste 18 Oeste 0 919.8 1.2 96
2019-11-18 06:00:00 3.5 8 Oeste 22 Sudoeste 0 919.6 1.5 96
2019-11-18 05:00:00 3.4 8 Oeste 19 Noroeste 0 919.1 1.5 95
2019-11-18 04:00:00 3.4 8 Oeste 18 Oeste 0 918.6 0.7 96
2019-11-18 03:00:00 3.2 9 Oeste 21 Noroeste 0 918.1 0.8 95
2019-11-18 02:00:00 3.2 9 Oeste 18 Oeste 0 917.6 0.3 95
2019-11-18 01:00:00 3.4 6 Noroeste 27 Oeste 0 917.9 1 94
2019-11-18 00:00:00 4.4 10 Oeste 33 Noroeste 0 917.3 0.9 95
2019-11-17 23:00:00 4.5 10 Oeste 26 Noroeste 0 917.3 1.1 94
2019-11-17 22:00:00 4.6 9 Oeste 40 Oeste 0.2 916.9 0.8 96
2019-11-17 21:00:00 4.5 15 Oeste 37 Oeste 0.4 916.4 0.4 95
2019-11-17 20:00:00 4.6 14 Oeste 33 Oeste 0.2 916.2 0.5 95
2019-11-17 19:00:00 4.5 14 Oeste 33 Oeste 0 916.1 0.5 95
2019-11-17 18:00:00 5.1 11 Oeste 29 Oeste 0.4 916 0.6 93
2019-11-17 17:00:00 5.7 14 Oeste 29 Oeste 0 915.7 -0.1 90
2019-11-17 16:00:00 5.6 13 Oeste 41 Oeste 0.6 915.6 -0.4 92
2019-11-17 15:00:00 6.7 17 Oeste 37 Noroeste 0.2 915.4 -0.8 94
2019-11-17 14:00:00 6.5 13 Noroeste 40 Oeste 0.4 915.8 -0.5 92
2019-11-17 13:00:00 6.7 18 Oeste 44 Oeste 0.2 916 -0.1 94
2019-11-17 12:00:00 7.5 15 Oeste 36 Noroeste 1.4 916.2 0.4 96
2019-11-17 11:00:00 7.3 15 Oeste 33 Oeste 1.8 916.3 0.4 96
2019-11-17 10:00:00 7 14 Oeste 30 Oeste 0.8 916.1 0.8 96
2019-11-17 09:00:00 6.8 13 Oeste 29 Oeste 2.2 915.8 0 96
2019-11-17 08:00:00 6.9 12 Oeste 28 Oeste 4.2 915.9 -0.5 97
2019-11-17 07:00:00 6.6 11 Oeste 28 Oeste 0 915.3 -1.5 97
2019-11-17 06:00:00 4.4 2 Este 12 Este 0.2 915.8 -1.3 96
2019-11-17 05:00:00 4.3 6 Este 16 Noroeste 0 916.4 -1.4 96
2019-11-17 04:00:00 4 3 Norte 10 Noroeste 0 916.8 -1.7 96
2019-11-17 03:00:00 3.8 3 Nordeste 6 Nordeste 0 917.1 -1.7 96
2019-11-17 02:00:00 3.7 3 Nordeste 6 Este 0.2 917.8 -1.3 96
2019-11-17 01:00:00 3.5 2 Sudeste 8 Nordeste 0 918.5 -0.7 96
2019-11-17 00:00:00 3.4 0 Calma 6 Este 0 918.8 -0.4 95
2019-11-16 23:00:00 3.5 4 Este 10 Este 0 919.1 0 94
2019-11-16 22:00:00 3.8 4 Este 23 Oeste 0 919.2 -0.1 93
2019-11-16 21:00:00 3.8 10 Oeste 28 Sudoeste 0 919.2 -0.2 93
2019-11-16 20:00:00 3.5 10 Oeste 22 Oeste 0.2 919.1 -0.1 93
2019-11-16 19:00:00 3.4 9 Oeste 22 Oeste 0.2 919.3 0.1 93
2019-11-16 18:00:00 3.8 9 Oeste 21 Oeste 0 919.4 -0.1 91
2019-11-16 17:00:00 4.6 8 Oeste 22 Oeste 0 919.2 -0.2 90
2019-11-16 16:00:00 4.7 9 Oeste 23 Noroeste 0.2 919.2 -0.3 90
2019-11-16 15:00:00 3.9 9 Oeste 25 Oeste 0.4 919.5 -0.5 91
2019-11-16 14:00:00 4.8 9 Oeste 23 Oeste 0 919.4 -0.3 86
2019-11-16 13:00:00 4.8 11 Oeste 22 Oeste 0 919.5 0.2 90
2019-11-16 12:00:00 3.8 8 Oeste 23 Oeste 0.4 920 1.1 94
2019-11-16 11:00:00 3.9 7 Oeste 20 Oeste 0 919.7 1.2 95
2019-11-16 10:00:00 3.2 8 Oeste 18 Noroeste 0.2 919.3 1.4 97
2019-11-16 09:00:00 1.8 8 Oeste 16 Oeste 0 918.9 1.7 97
2019-11-16 08:00:00 1.6 6 Oeste 19 Oeste 0 918.5 1.5 97
2019-11-16 07:00:00 1.6 9 Oeste 18 Oeste 0 917.9 1.1 97
2019-11-16 06:00:00 1.3 7 Oeste 20 Noroeste 0 917.2 0.8 97
2019-11-16 05:00:00 1.4 9 Oeste 22 Oeste 0 917 0.7 97
2019-11-16 04:00:00 1.2 9 Oeste 24 Oeste 0 916.8 0.8 97
2019-11-16 03:00:00 1 10 Oeste 22 Oeste 0.2 916.4 0.6 97
2019-11-16 02:00:00 0.7 8 Oeste 23 Oeste 0.6 916.3 0.8 96
2019-11-16 01:00:00 1 10 Oeste 26 Oeste 0 916 1.3 96
2019-11-16 00:00:00 1 9 Oeste 25 Oeste 0.4 915.8 1.5 96